Time;durP1;ratioP1;P1;durP2;ratioP2;P2;SDS_P1;SDS_P2;PMS_P1;PMS_P2;Temp;Humidity;BMP_temperature;BMP_pressure;BME280_temperature;BME280_humidity;BME280_pressure;Samples;Min_cycle;Max_cycle;Signal;HPM_P1;HPM_P2
2021/07/22 00:00:07;;;;;;;19.07;6.53;;;23.70;99.90;;;;;;5038362;28;20188;-75
2021/07/22 00:02:33;;;;;;;22.60;5.80;;;23.70;99.90;;;;;;5040899;28;20176;-73
2021/07/22 00:05:00;;;;;;;21.67;7.13;;;23.70;99.90;;;;;;5050261;28;20378;-73
2021/07/22 00:07:27;;;;;;;17.83;6.22;;;23.70;99.90;;;;;;5033692;28;20183;-73
2021/07/22 00:09:53;;;;;;;14.50;5.93;;;23.70;99.90;;;;;;5041359;28;20191;-73
2021/07/22 00:12:20;;;;;;;14.60;6.17;;;23.70;99.90;;;;;;5040194;28;20194;-73
2021/07/22 00:14:46;;;;;;;15.55;6.05;;;23.60;99.90;;;;;;5039793;28;20239;-73
2021/07/22 00:17:12;;;;;;;22.20;6.43;;;23.60;99.90;;;;;;5040324;28;20219;-74
2021/07/22 00:19:39;;;;;;;17.02;5.95;;;23.60;99.90;;;;;;5040961;28;20183;-72
2021/07/22 00:22:05;;;;;;;14.57;6.07;;;23.60;99.90;;;;;;5038041;28;20183;-75
2021/07/22 00:24:34;;;;;;;18.43;5.83;;;23.60;99.90;;;;;;5023722;28;20199;-73
2021/07/22 00:27:00;;;;;;;26.87;6.23;;;23.60;99.90;;;;;;5043723;28;20739;-75
2021/07/22 00:29:30;;;;;;;21.77;5.73;;;23.60;99.90;;;;;;5026044;28;20184;-75
2021/07/22 00:31:58;;;;;;;22.40;6.73;;;23.60;99.90;;;;;;5042725;28;20590;-74
2021/07/22 00:34:24;;;;;;;17.43;6.23;;;23.60;99.90;;;;;;5043904;28;20212;-75
2021/07/22 00:36:50;;;;;;;19.83;6.93;;;23.60;99.90;;;;;;5015469;28;20847;-75
2021/07/22 00:39:17;;;;;;;24.00;7.03;;;23.60;99.90;;;;;;5022421;28;20176;-76
2021/07/22 00:41:44;;;;;;;21.13;6.60;;;23.60;99.90;;;;;;5041739;28;20279;-75
2021/07/22 00:44:11;;;;;;;23.40;6.18;;;23.60;99.90;;;;;;5027368;28;20187;-76
2021/07/22 00:46:37;;;;;;;18.83;6.10;;;23.60;99.90;;;;;;5040674;28;20204;-75
2021/07/22 00:49:09;;;;;;;16.40;6.60;;;23.60;99.90;;;;;;5043108;28;20191;-75
2021/07/22 00:51:35;;;;;;;16.93;6.47;;;23.60;99.90;;;;;;5042209;28;20728;-76
2021/07/22 00:54:04;;;;;;;15.63;6.30;;;23.60;99.90;;;;;;5044085;28;20277;-74
2021/07/22 00:56:31;;;;;;;15.50;5.90;;;23.60;99.90;;;;;;5048605;28;20187;-76
2021/07/22 00:58:57;;;;;;;13.30;5.80;;;23.60;99.90;;;;;;5041683;28;20187;-74
2021/07/22 01:01:24;;;;;;;14.50;5.97;;;23.60;99.90;;;;;;5054321;28;20176;-76
2021/07/22 01:03:50;;;;;;;18.57;6.47;;;23.60;99.90;;;;;;5038718;28;20628;-75
2021/07/22 01:06:16;;;;;;;21.50;7.00;;;23.60;99.90;;;;;;5036082;28;20255;-75
2021/07/22 01:08:43;;;;;;;16.42;5.70;;;23.60;99.90;;;;;;5034716;28;21030;-76
2021/07/22 01:11:09;;;;;;;20.95;6.28;;;23.60;99.90;;;;;;5039476;28;20226;-76
2021/07/22 01:13:35;;;;;;;15.07;5.70;;;23.60;99.90;;;;;;5047016;28;20318;-75
2021/07/22 01:16:02;;;;;;;20.92;6.53;;;23.60;99.90;;;;;;5040100;28;20644;-77
2021/07/22 01:18:28;;;;;;;20.77;6.43;;;23.50;99.90;;;;;;5037057;28;20827;-74
2021/07/22 01:20:54;;;;;;;18.38;6.55;;;23.50;99.90;;;;;;5043557;28;20194;-75
2021/07/22 01:23:21;;;;;;;17.93;6.07;;;23.60;99.90;;;;;;5036200;28;20287;-73
2021/07/22 01:25:48;;;;;;;14.68;5.88;;;23.50;99.90;;;;;;5038363;28;20218;-72
2021/07/22 01:28:14;;;;;;;16.92;6.38;;;23.50;99.90;;;;;;5060984;28;20676;-74
2021/07/22 01:30:42;;;;;;;21.20;6.63;;;23.50;99.90;;;;;;5043027;28;20219;-74
2021/07/22 01:33:08;;;;;;;19.93;6.03;;;23.50;99.90;;;;;;5025906;28;20207;-74
2021/07/22 01:35:34;;;;;;;18.10;6.70;;;23.50;99.90;;;;;;5044248;28;20194;-74
2021/07/22 01:38:00;;;;;;;18.13;6.37;;;23.40;99.90;;;;;;5034169;28;20245;-75
2021/07/22 01:40:27;;;;;;;15.40;6.85;;;23.40;99.90;;;;;;5043360;28;20275;-75
2021/07/22 01:42:53;;;;;;;20.58;6.35;;;23.40;99.90;;;;;;5045078;28;20192;-76
2021/07/22 01:45:19;;;;;;;16.40;6.17;;;23.40;99.90;;;;;;5058603;28;20222;-76
2021/07/22 01:47:46;;;;;;;19.83;7.07;;;23.50;99.90;;;;;;5043395;28;20190;-74
2021/07/22 01:50:12;;;;;;;16.60;6.10;;;23.50;99.90;;;;;;5046720;28;20187;-75
2021/07/22 01:52:39;;;;;;;19.38;6.03;;;23.50;99.90;;;;;;5060693;28;20194;-75
2021/07/22 01:55:06;;;;;;;17.38;5.85;;;23.50;99.90;;;;;;5042113;28;20188;-74
2021/07/22 01:57:32;;;;;;;20.03;6.90;;;23.50;99.90;;;;;;5026412;28;20191;-77
2021/07/22 02:00:04;;;;;;;17.70;6.75;;;23.50;99.90;;;;;;5027327;28;20189;-75
2021/07/22 02:02:32;;;;;;;15.13;6.47;;;23.50;99.90;;;;;;5029263;28;20187;-76
2021/07/22 02:05:01;;;;;;;21.27;6.65;;;23.50;99.90;;;;;;5042590;28;20877;-76
2021/07/22 02:07:28;;;;;;;21.63;6.33;;;23.50;99.90;;;;;;5046362;28;21049;-74
2021/07/22 02:09:54;;;;;;;22.20;6.47;;;23.40;99.90;;;;;;5034042;28;20187;-75
2021/07/22 02:12:21;;;;;;;18.03;6.17;;;23.50;99.90;;;;;;5056852;28;20190;-74
2021/07/22 02:14:51;;;;;;;14.02;6.28;;;23.40;99.90;;;;;;5043760;28;20256;-74
2021/07/22 02:17:19;;;;;;;23.63;6.38;;;23.40;99.90;;;;;;5042433;28;20226;-75
2021/07/22 02:19:47;;;;;;;22.77;6.50;;;23.40;99.90;;;;;;5027213;28;20184;-73
2021/07/22 02:22:16;;;;;;;17.90;6.20;;;23.40;99.90;;;;;;5045045;28;20896;-76
2021/07/22 02:24:42;;;;;;;21.00;6.00;;;23.40;99.90;;;;;;5024482;28;20275;-75
2021/07/22 02:27:09;;;;;;;14.77;6.22;;;23.40;99.90;;;;;;5023386;28;20187;-74
2021/07/22 02:29:35;;;;;;;17.30;6.00;;;23.40;99.90;;;;;;5043063;28;20183;-76
2021/07/22 02:32:04;;;;;;;18.17;6.43;;;23.40;99.90;;;;;;5042039;28;20202;-75
2021/07/22 02:34:30;;;;;;;16.97;5.87;;;23.40;99.90;;;;;;5043490;28;20222;-74
2021/07/22 02:36:57;;;;;;;14.27;5.90;;;23.40;99.90;;;;;;5042179;28;20186;-75
2021/07/22 02:39:24;;;;;;;21.40;6.20;;;23.40;99.90;;;;;;5054473;28;20248;-75
2021/07/22 02:41:50;;;;;;;25.13;6.10;;;23.40;99.90;;;;;;5037315;28;20222;-75
2021/07/22 02:44:16;;;;;;;17.97;7.20;;;23.40;99.90;;;;;;5040888;28;20294;-75
2021/07/22 02:46:43;;;;;;;15.73;6.30;;;23.30;99.90;;;;;;5039422;28;20211;-74
2021/07/22 02:49:09;;;;;;;21.07;6.33;;;23.40;99.90;;;;;;5040249;28;20271;-74
2021/07/22 02:51:35;;;;;;;20.75;6.78;;;23.40;99.90;;;;;;5028954;28;20189;-74
2021/07/22 02:54:01;;;;;;;18.47;6.40;;;23.40;99.90;;;;;;5044710;28;20215;-74
2021/07/22 02:56:28;;;;;;;20.53;6.30;;;23.30;99.90;;;;;;5045433;28;20188;-74
2021/07/22 02:58:54;;;;;;;23.83;6.38;;;23.30;99.90;;;;;;5030737;28;20183;-75
2021/07/22 03:01:20;;;;;;;23.33;7.00;;;23.30;99.90;;;;;;5046320;28;20176;-76
2021/07/22 03:03:46;;;;;;;22.13;7.93;;;23.30;99.90;;;;;;5047016;28;20789;-71
2021/07/22 03:06:16;;;;;;;20.53;7.07;;;23.30;99.90;;;;;;5045575;28;20192;-73
2021/07/22 03:08:42;;;;;;;18.48;6.78;;;23.30;99.90;;;;;;5049564;28;20242;-72
2021/07/22 03:11:10;;;;;;;15.67;6.90;;;23.30;99.90;;;;;;5034119;28;20257;-75
2021/07/22 03:13:40;;;;;;;16.98;6.38;;;23.30;99.90;;;;;;5043113;28;20220;-72
2021/07/22 03:16:06;;;;;;;20.90;6.72;;;23.30;99.90;;;;;;5047111;28;20187;-73
2021/07/22 03:18:33;;;;;;;18.48;6.85;;;23.30;99.90;;;;;;5045027;28;20180;-73
2021/07/22 03:21:01;;;;;;;18.20;7.03;;;23.30;99.90;;;;;;5042834;28;20194;-74
2021/07/22 03:23:28;;;;;;;19.57;6.93;;;23.30;99.90;;;;;;5046029;28;20241;-75
2021/07/22 03:25:54;;;;;;;13.45;6.38;;;23.30;99.90;;;;;;5056042;28;20188;-73
2021/07/22 03:28:21;;;;;;;20.15;7.13;;;23.30;99.90;;;;;;5043889;28;20188;-73
2021/07/22 03:30:47;;;;;;;20.75;6.82;;;23.30;99.90;;;;;;5028535;28;20240;-74
2021/07/22 03:33:13;;;;;;;17.95;6.60;;;23.30;99.90;;;;;;5062622;28;20253;-73
2021/07/22 03:35:41;;;;;;;22.05;7.30;;;23.30;99.90;;;;;;5031440;28;20628;-72
2021/07/22 03:38:07;;;;;;;16.33;6.47;;;23.30;99.90;;;;;;5042221;28;20206;-75
2021/07/22 03:40:34;;;;;;;17.02;6.45;;;23.30;99.90;;;;;;5043051;28;20211;-73
2021/07/22 03:43:00;;;;;;;18.13;6.40;;;23.30;99.90;;;;;;5040767;28;20199;-73
2021/07/22 03:45:27;;;;;;;21.73;7.17;;;23.30;99.90;;;;;;5039543;28;20296;-72
2021/07/22 03:47:53;;;;;;;17.03;6.30;;;23.40;99.90;;;;;;5041291;28;20543;-73
2021/07/22 03:50:19;;;;;;;20.45;6.45;;;23.40;99.90;;;;;;5041414;28;20183;-74
2021/07/22 03:52:45;;;;;;;18.43;6.43;;;23.40;99.90;;;;;;5042799;28;20195;-73
2021/07/22 03:55:12;;;;;;;21.05;7.35;;;23.40;99.90;;;;;;5043202;28;20188;-72
2021/07/22 03:57:38;;;;;;;18.33;6.43;;;23.40;99.90;;;;;;5042925;28;20722;-71
2021/07/22 04:00:06;;;;;;;16.75;6.72;;;23.30;99.90;;;;;;5028619;28;20183;-74
2021/07/22 04:02:32;;;;;;;15.95;6.55;;;23.40;99.90;;;;;;5044152;28;20659;-74
2021/07/22 04:04:58;;;;;;;15.30;6.70;;;23.40;99.90;;;;;;5044693;28;20183;-76
2021/07/22 04:07:25;;;;;;;15.87;6.70;;;23.40;99.90;;;;;;5047251;28;20198;-76
2021/07/22 04:09:53;;;;;;;16.73;7.27;;;23.40;99.90;;;;;;5045234;28;20261;-75
2021/07/22 04:12:19;;;;;;;13.93;6.73;;;23.40;99.90;;;;;;5040265;28;20187;-74
2021/07/22 04:14:45;;;;;;;21.43;7.37;;;23.50;99.90;;;;;;5044184;28;20250;-75
2021/07/22 04:17:15;;;;;;;21.15;7.25;;;23.50;99.90;;;;;;5061668;28;20184;-74
2021/07/22 04:19:41;;;;;;;18.80;7.90;;;23.50;99.90;;;;;;5045181;28;20176;-76
2021/07/22 04:22:08;;;;;;;20.13;7.22;;;23.50;99.90;;;;;;5045661;28;20771;-74
2021/07/22 04:24:34;;;;;;;22.70;7.35;;;23.60;99.90;;;;;;5046634;28;20251;-75
2021/07/22 04:27:01;;;;;;;18.70;7.35;;;23.60;99.90;;;;;;5030552;28;20211;-75
2021/07/22 04:29:27;;;;;;;17.13;7.50;;;23.60;99.90;;;;;;5040981;28;20245;-76
2021/07/22 04:31:53;;;;;;;20.42;7.18;;;23.70;99.90;;;;;;5049911;28;20183;-75
2021/07/22 04:34:19;;;;;;;18.33;7.22;;;23.70;99.90;;;;;;5043187;28;20202;-76
2021/07/22 04:36:46;;;;;;;15.77;7.03;;;23.70;99.90;;;;;;5029074;28;20188;-76
2021/07/22 04:39:12;;;;;;;21.00;7.57;;;23.80;99.90;;;;;;5045959;28;20810;-74
2021/07/22 04:41:38;;;;;;;21.90;7.75;;;23.80;99.90;;;;;;5045824;28;20650;-75
2021/07/22 04:44:04;;;;;;;18.60;7.33;;;23.90;99.90;;;;;;4984012;28;1494210;-77
2021/07/22 04:46:32;;;;;;;22.70;7.30;;;23.90;99.90;;;;;;5045093;28;20223;-74
2021/07/22 04:48:58;;;;;;;22.92;7.40;;;24.00;99.90;;;;;;5044957;28;20262;-74
2021/07/22 04:51:24;;;;;;;23.33;7.03;;;24.00;99.90;;;;;;5028071;28;20192;-74
2021/07/22 04:53:50;;;;;;;20.77;7.00;;;24.00;99.90;;;;;;5043686;28;20215;-74
2021/07/22 04:56:17;;;;;;;18.33;7.63;;;24.00;99.90;;;;;;5043842;28;20271;-75
2021/07/22 04:58:43;;;;;;;18.42;7.07;;;24.10;99.90;;;;;;5010275;28;20564;-74
2021/07/22 05:01:09;;;;;;;18.33;7.65;;;24.10;99.90;;;;;;5044113;28;20187;-74
2021/07/22 05:03:35;;;;;;;17.42;7.50;;;24.20;99.90;;;;;;5028767;28;20190;-76
2021/07/22 05:06:02;;;;;;;14.15;6.97;;;24.20;99.90;;;;;;5041315;28;20205;-75
2021/07/22 05:08:28;;;;;;;20.85;8.13;;;24.20;99.90;;;;;;5044875;28;20191;-72
2021/07/22 05:10:58;;;;;;;17.90;8.00;;;24.30;99.90;;;;;;5024075;28;20333;-75
2021/07/22 05:13:24;;;;;;;22.40;8.30;;;24.30;99.90;;;;;;5036182;28;20615;-74
2021/07/22 05:15:50;;;;;;;27.13;7.85;;;24.30;99.90;;;;;;5036033;28;20195;-72
2021/07/22 05:18:17;;;;;;;28.58;8.30;;;24.40;99.90;;;;;;5031711;28;20180;-74
2021/07/22 05:20:43;;;;;;;19.80;7.10;;;24.50;99.90;;;;;;5043712;28;20231;-73
2021/07/22 05:23:10;;;;;;;20.02;7.78;;;24.50;99.90;;;;;;5027039;28;20898;-74
2021/07/22 05:25:37;;;;;;;19.33;7.32;;;24.50;99.90;;;;;;5041002;28;20222;-73
2021/07/22 05:28:03;;;;;;;25.63;8.18;;;24.60;99.90;;;;;;5043212;28;20187;-72
2021/07/22 05:30:30;;;;;;;21.45;7.50;;;24.70;99.90;;;;;;5047355;28;20730;-73
2021/07/22 05:32:56;;;;;;;18.90;7.07;;;24.70;99.90;;;;;;5024239;28;20183;-73
2021/07/22 05:35:22;;;;;;;23.60;7.38;;;24.70;99.90;;;;;;5043599;28;20182;-74
2021/07/22 05:37:52;;;;;;;17.40;6.60;;;24.80;99.90;;;;;;5049905;28;20341;-72
2021/07/22 05:40:19;;;;;;;15.63;7.03;;;24.80;99.90;;;;;;5045726;28;20188;-75
2021/07/22 05:42:45;;;;;;;17.75;7.05;;;24.90;99.90;;;;;;5041714;28;20218;-73
2021/07/22 05:45:12;;;;;;;22.15;7.38;;;24.90;99.90;;;;;;5017696;28;20213;-72
2021/07/22 05:47:38;;;;;;;18.92;6.82;;;24.90;99.90;;;;;;5041517;28;20246;-74
2021/07/22 05:50:05;;;;;;;13.07;6.40;;;24.90;99.90;;;;;;5026177;28;20179;-73
2021/07/22 05:52:32;;;;;;;16.00;6.55;;;25.00;99.90;;;;;;5025327;28;20187;-73
2021/07/22 05:54:58;;;;;;;15.73;6.70;;;25.00;99.90;;;;;;5042016;28;20568;-72
2021/07/22 05:57:25;;;;;;;16.33;6.72;;;25.10;99.90;;;;;;5040652;28;20184;-72
2021/07/22 05:59:52;;;;;;;17.98;6.72;;;25.10;99.90;;;;;;5057253;28;20357;-73
2021/07/22 06:02:18;;;;;;;20.48;7.25;;;25.10;99.90;;;;;;5041541;28;20808;-74
2021/07/22 06:04:44;;;;;;;18.80;7.32;;;25.20;99.90;;;;;;5023198;28;20195;-74
2021/07/22 06:07:11;;;;;;;14.18;6.78;;;25.30;99.90;;;;;;5028956;28;20176;-73
2021/07/22 06:09:37;;;;;;;12.32;6.00;;;25.30;99.90;;;;;;5023124;28;20270;-73
2021/07/22 06:12:04;;;;;;;17.05;6.75;;;25.40;99.90;;;;;;5041175;28;20194;-73
2021/07/22 06:14:31;;;;;;;18.38;7.13;;;25.40;99.90;;;;;;5037492;28;20215;-72
2021/07/22 06:16:57;;;;;;;16.17;6.55;;;25.50;99.90;;;;;;5032637;28;20534;-72
2021/07/22 06:19:23;;;;;;;18.25;6.03;;;25.50;99.90;;;;;;5040719;28;20180;-76
2021/07/22 06:21:50;;;;;;;21.42;7.65;;;25.60;99.90;;;;;;5044285;28;20183;-72
2021/07/22 06:24:16;;;;;;;11.05;6.07;;;25.70;99.90;;;;;;5022858;28;20215;-74
2021/07/22 06:26:42;;;;;;;14.25;6.40;;;25.70;99.90;;;;;;5041856;28;20602;-73
2021/07/22 06:29:08;;;;;;;20.77;7.07;;;25.70;99.90;;;;;;5058898;28;20184;-74
2021/07/22 06:31:36;;;;;;;15.77;6.25;;;25.70;99.90;;;;;;5039288;28;20235;-73
2021/07/22 06:34:02;;;;;;;21.52;6.57;;;25.70;99.90;;;;;;5043304;28;20307;-72
2021/07/22 06:36:28;;;;;;;18.05;6.57;;;25.80;99.90;;;;;;5057269;28;20183;-74
2021/07/22 06:38:55;;;;;;;13.15;5.70;;;25.90;99.90;;;;;;5060628;28;20206;-74
2021/07/22 06:41:23;;;;;;;15.77;6.72;;;25.90;99.90;;;;;;5043028;28;20481;-74
2021/07/22 06:43:49;;;;;;;13.73;6.43;;;25.90;99.90;;;;;;5040581;28;20241;-72
2021/07/22 06:46:16;;;;;;;16.48;6.25;;;26.00;99.90;;;;;;5036802;28;20239;-73
2021/07/22 06:48:44;;;;;;;15.65;6.45;;;26.10;99.90;;;;;;5034836;28;20271;-73
2021/07/22 06:51:11;;;;;;;19.35;6.35;;;26.10;99.90;;;;;;5048616;28;20188;-73
2021/07/22 06:53:37;;;;;;;22.60;6.35;;;26.10;99.90;;;;;;5022944;28;20204;-73
2021/07/22 06:56:04;;;;;;;17.00;6.30;;;26.20;99.90;;;;;;5040197;28;20183;-73
2021/07/22 06:58:31;;;;;;;15.75;6.13;;;26.30;99.90;;;;;;5057239;28;20332;-73
2021/07/22 07:00:58;;;;;;;13.50;6.00;;;26.30;99.90;;;;;;5043558;28;20186;-71
2021/07/22 07:03:24;;;;;;;13.93;5.82;;;26.40;99.90;;;;;;5043267;28;20187;-72
2021/07/22 07:05:50;;;;;;;14.32;5.68;;;26.40;99.90;;;;;;5041267;28;20671;-75
2021/07/22 07:08:17;;;;;;;13.05;5.50;;;26.60;99.90;;;;;;5042303;28;20180;-73
2021/07/22 07:10:43;;;;;;;10.60;5.47;;;26.60;99.90;;;;;;5040497;28;20938;-74
2021/07/22 07:13:09;;;;;;;13.57;5.60;;;26.60;99.90;;;;;;5044242;28;20229;-72
2021/07/22 07:15:36;;;;;;;15.05;6.18;;;26.60;99.90;;;;;;5023591;28;20271;-73
2021/07/22 07:18:03;;;;;;;15.43;5.40;;;26.70;99.90;;;;;;5029092;28;20200;-73
2021/07/22 07:20:31;;;;;;;11.57;5.32;;;26.70;99.90;;;;;;5039817;28;20191;-73
2021/07/22 07:22:57;;;;;;;15.20;5.30;;;26.70;99.90;;;;;;5040602;28;20669;-73
2021/07/22 07:25:24;;;;;;;11.50;5.00;;;26.70;99.90;;;;;;5042339;28;20179;-73
2021/07/22 07:27:50;;;;;;;14.38;4.95;;;26.90;99.90;;;;;;5042578;28;20189;-73
2021/07/22 07:30:19;;;;;;;13.40;5.32;;;27.00;99.90;;;;;;5040845;28;20198;-73
2021/07/22 07:32:55;;;;;;;13.27;5.55;;;27.00;99.90;;;;;;5047071;28;20515;-74
2021/07/22 07:35:23;;;;;;;13.55;5.75;;;27.10;99.90;;;;;;5025043;28;20685;-73
2021/07/22 07:37:51;;;;;;;11.38;4.82;;;27.10;99.90;;;;;;5043161;28;20249;-73
2021/07/22 07:40:18;;;;;;;14.70;5.45;;;27.00;99.90;;;;;;5044642;28;20542;-74
2021/07/22 07:42:44;;;;;;;14.85;6.00;;;27.30;99.90;;;;;;5027997;28;20199;-72
2021/07/22 07:45:12;;;;;;;11.35;5.28;;;27.40;99.90;;;;;;5028644;28;20187;-75
2021/07/22 07:47:38;;;;;;;11.70;5.15;;;27.30;99.90;;;;;;5025350;28;20195;-74
2021/07/22 07:50:08;;;;;;;16.98;5.65;;;27.30;99.90;;;;;;5020927;28;20179;-72
2021/07/22 07:52:36;;;;;;;13.25;5.32;;;27.40;99.90;;;;;;5044427;28;20282;-74
2021/07/22 07:55:06;;;;;;;14.63;5.00;;;27.40;99.90;;;;;;5040669;28;20212;-74
2021/07/22 07:57:32;;;;;;;18.80;6.00;;;27.30;99.90;;;;;;5044973;28;20190;-74
2021/07/22 08:00:01;;;;;;;13.45;5.25;;;27.40;99.90;;;;;;5025924;28;20190;-73
2021/07/22 08:02:27;;;;;;;17.77;5.95;;;27.50;99.90;;;;;;5042090;28;20222;-72
2021/07/22 08:04:56;;;;;;;14.07;4.97;;;27.60;99.90;;;;;;5044648;28;20302;-73
2021/07/22 08:07:27;;;;;;;15.52;5.60;;;27.80;99.90;;;;;;5047457;28;21015;-76
2021/07/22 08:09:53;;;;;;;10.82;4.90;;;27.90;99.90;;;;;;5046800;28;20284;-73
2021/07/22 08:12:20;;;;;;;12.38;4.85;;;28.00;99.90;;;;;;5046999;28;20202;-74
2021/07/22 08:14:47;;;;;;;13.95;4.60;;;27.90;99.90;;;;;;5043592;28;20208;-74
2021/07/22 08:17:16;;;;;;;10.88;4.95;;;27.90;99.90;;;;;;5042482;28;20180;-72
2021/07/22 08:19:43;;;;;;;15.27;4.93;;;28.20;99.90;;;;;;5032338;28;20286;-72
2021/07/22 08:22:13;;;;;;;12.90;5.00;;;28.40;99.90;;;;;;5040387;28;20187;-73
2021/07/22 08:24:40;;;;;;;11.73;4.68;;;28.40;99.90;;;;;;5043854;28;20191;-73
2021/07/22 08:27:07;;;;;;;10.40;4.72;;;28.30;99.90;;;;;;5026902;28;20195;-74
2021/07/22 08:29:39;;;;;;;12.02;5.38;;;28.20;99.90;;;;;;5043022;28;20847;-74
2021/07/22 08:32:06;;;;;;;14.75;5.13;;;28.40;99.90;;;;;;5037703;28;20223;-73
2021/07/22 08:34:33;;;;;;;17.80;5.25;;;28.50;99.90;;;;;;5040684;28;21000;-75
2021/07/22 08:37:08;;;;;;;10.73;4.90;;;28.50;99.90;;;;;;5041715;28;20184;-74
2021/07/22 08:39:43;;;;;;;15.73;5.38;;;28.80;99.90;;;;;;5042353;28;20274;-73
2021/07/22 08:42:12;;;;;;;13.38;5.60;;;29.00;99.90;;;;;;5025143;28;20659;-73
2021/07/22 08:44:42;;;;;;;14.63;5.20;;;29.50;99.90;;;;;;5044399;28;20175;-73
2021/07/22 08:47:11;;;;;;;15.57;5.55;;;29.50;99.90;;;;;;5043546;28;20207;-74
2021/07/22 08:49:40;;;;;;;14.38;5.20;;;29.40;99.90;;;;;;5039992;28;20195;-73
2021/07/22 08:52:09;;;;;;;13.77;5.53;;;29.40;99.90;;;;;;5018907;28;20197;-74
2021/07/22 08:54:37;;;;;;;13.15;5.30;;;29.30;99.90;;;;;;5046461;28;20695;-73
2021/07/22 08:57:09;;;;;;;15.35;5.70;;;29.20;99.90;;;;;;5041074;28;20379;-74
2021/07/22 08:59:35;;;;;;;15.52;5.55;;;29.20;99.90;;;;;;5060330;28;20187;-75
2021/07/22 09:02:05;;;;;;;14.95;5.35;;;29.20;99.90;;;;;;5041628;28;20628;-74
2021/07/22 09:04:50;;;;;;;15.30;5.00;;;29.30;99.90;;;;;;5043085;28;20234;-72
2021/07/22 09:07:19;;;;;;;14.73;5.57;;;29.50;99.90;;;;;;5057942;28;20533;-73
2021/07/22 09:10:05;;;;;;;11.55;5.00;;;29.60;99.90;;;;;;5039443;28;20195;-74
2021/07/22 09:12:45;;;;;;;16.20;5.78;;;29.50;99.90;;;;;;5041022;28;20648;-74
2021/07/22 09:15:20;;;;;;;21.45;5.75;;;29.60;99.90;;;;;;5038432;28;20207;-74
2021/07/22 09:17:46;;;;;;;15.77;5.40;;;29.80;99.90;;;;;;5055344;28;20191;-75
2021/07/22 09:20:26;;;;;;;20.83;6.28;;;29.80;99.90;;;;;;5036613;28;20192;-73
2021/07/22 09:22:52;;;;;;;8.95;4.70;;;29.80;99.90;;;;;;5045279;28;20188;-75
2021/07/22 09:25:40;;;;;;;12.82;5.70;;;29.90;99.90;;;;;;5039110;28;20190;-77
2021/07/22 09:28:07;;;;;;;15.88;5.85;;;30.00;99.90;;;;;;5025112;28;20219;-74
2021/07/22 09:30:36;;;;;;;17.65;5.10;;;30.10;99.90;;;;;;5041749;28;20192;-75
2021/07/22 09:33:04;;;;;;;12.88;5.43;;;30.20;99.90;;;;;;5035262;28;20568;-75
2021/07/22 09:35:37;;;;;;;11.52;4.57;;;30.30;99.90;;;;;;5043664;28;20692;-75
2021/07/22 09:38:11;;;;;;;9.75;5.10;;;30.30;99.90;;;;;;5041906;28;20198;-75
2021/07/22 09:40:38;;;;;;;15.60;5.50;;;30.30;99.90;;;;;;5044073;28;20682;-76
2021/07/22 09:43:05;;;;;;;13.25;4.78;;;30.40;99.90;;;;;;5024342;28;20199;-76
2021/07/22 09:45:38;;;;;;;13.93;5.10;;;30.40;99.90;;;;;;5042568;28;20212;-74
2021/07/22 09:48:10;;;;;;;12.32;5.03;;;30.60;99.90;;;;;;5042769;28;20610;-76
2021/07/22 09:50:44;;;;;;;20.80;5.50;;;30.60;99.90;;;;;;5049199;28;20241;-75
2021/07/22 09:53:13;;;;;;;15.48;5.28;;;30.60;99.90;;;;;;5033356;28;20195;-75
2021/07/22 09:55:43;;;;;;;10.93;4.82;;;30.50;99.90;;;;;;5044675;28;20180;-75
2021/07/22 09:58:12;;;;;;;14.20;5.20;;;30.70;99.90;;;;;;5040875;28;20210;-77
2021/07/22 10:00:43;;;;;;;18.05;4.65;;;30.60;99.90;;;;;;5041001;28;20184;-75
2021/07/22 10:03:14;;;;;;;13.52;4.80;;;30.70;99.90;;;;;;5038303;28;20180;-74
2021/07/22 10:05:47;;;;;;;12.38;5.07;;;30.90;99.90;;;;;;5058352;28;20183;-77
2021/07/22 10:08:20;;;;;;;12.38;5.18;;;30.80;99.90;;;;;;5041803;28;20249;-75
2021/07/22 10:10:56;;;;;;;13.02;5.03;;;31.30;99.90;;;;;;5060055;28;20219;-76
2021/07/22 10:13:33;;;;;;;13.25;5.10;;;31.00;99.90;;;;;;5023739;28;20207;-76
2021/07/22 10:16:09;;;;;;;13.23;4.90;;;31.00;99.90;;;;;;5045737;28;20202;-78
2021/07/22 10:18:46;;;;;;;13.48;5.18;;;31.00;99.90;;;;;;5039781;28;20188;-74
2021/07/22 10:21:13;;;;;;;14.65;4.68;;;31.20;99.90;;;;;;5043005;28;20187;-75
2021/07/22 10:23:42;;;;;;;17.42;5.38;;;31.50;99.90;;;;;;5033797;28;23019;-74
2021/07/22 10:26:11;;;;;;;13.18;4.93;;;31.50;99.90;;;;;;5034444;28;20192;-75
2021/07/22 10:28:39;;;;;;;9.98;4.47;;;32.30;99.90;;;;;;5060061;28;20251;-75
2021/07/22 10:31:07;;;;;;;14.85;5.32;;;34.10;99.90;;;;;;5038559;28;20199;-77
2021/07/22 10:33:37;;;;;;;11.57;4.80;;;34.80;99.90;;;;;;5039986;28;20222;-76
2021/07/22 10:36:06;;;;;;;15.35;4.82;;;33.70;99.90;;;;;;5023373;28;20207;-76
2021/07/22 10:38:47;;;;;;;17.65;5.35;;;32.80;99.90;;;;;;5026082;28;20180;-76
2021/07/22 10:41:41;;;;;;;21.27;5.80;;;32.10;99.90;;;;;;5020451;28;20198;-76
2021/07/22 10:44:31;;;;;;;10.50;4.78;;;31.90;99.90;;;;;;5058981;28;20222;-77
2021/07/22 10:47:06;;;;;;;16.42;5.50;;;31.90;99.90;;;;;;5041367;28;20238;-77
2021/07/22 10:49:43;;;;;;;12.90;5.40;;;31.80;99.90;;;;;;5023792;28;20238;-76
2021/07/22 10:52:13;;;;;;;20.15;5.88;;;31.80;99.90;;;;;;5041277;28;20218;-75
2021/07/22 10:54:48;;;;;;;17.02;5.72;;;31.40;99.90;;;;;;5039415;28;20239;-75
2021/07/22 10:57:47;;;;;;;11.35;5.28;;;31.10;99.90;;;;;;5049584;28;20187;-75
2021/07/22 11:00:18;;;;;;;11.27;5.03;;;31.10;99.90;;;;;;5040422;28;20200;-75
2021/07/22 11:03:34;;;;;;;13.00;5.30;;;31.20;99.90;;;;;;5023045;28;20683;-79
2021/07/22 11:06:13;;;;;;;12.23;5.20;;;31.30;99.90;;;;;;5041598;28;20270;-75
2021/07/22 11:08:42;;;;;;;17.38;5.45;;;31.20;99.90;;;;;;5045377;28;20213;-74
2021/07/22 11:11:13;;;;;;;13.38;4.65;;;31.30;99.90;;;;;;5036814;28;20214;-73
2021/07/22 11:13:54;;;;;;;16.80;5.05;;;31.40;99.90;;;;;;5029802;28;20691;-77
2021/07/22 11:16:31;;;;;;;14.07;5.75;;;31.40;99.90;;;;;;5043715;28;20831;-76
2021/07/22 11:19:12;;;;;;;10.75;4.55;;;31.30;99.90;;;;;;5046287;28;20175;-77
2021/07/22 11:21:39;;;;;;;11.80;4.90;;;31.10;99.90;;;;;;5045729;28;20237;-74
2021/07/22 11:24:16;;;;;;;16.25;5.50;;;31.40;99.90;;;;;;5042873;28;20709;-75
2021/07/22 11:26:44;;;;;;;13.13;5.32;;;31.30;99.90;;;;;;5024786;28;20648;-74
2021/07/22 11:29:13;;;;;;;18.15;5.50;;;31.00;99.90;;;;;;5040627;28;20655;-76
2021/07/22 11:31:45;;;;;;;14.50;5.13;;;31.10;99.90;;;;;;5044408;28;20305;-74
2021/07/22 11:34:13;;;;;;;14.10;5.38;;;31.00;99.90;;;;;;5039253;28;20203;-76
2021/07/22 11:36:40;;;;;;;12.57;4.90;;;31.00;99.90;;;;;;5029863;28;20183;-75
2021/07/22 11:39:08;;;;;;;15.40;5.43;;;31.00;99.90;;;;;;5029641;28;20207;-73
2021/07/22 11:41:35;;;;;;;14.07;5.57;;;30.90;99.90;;;;;;5043653;28;20199;-76
2021/07/22 11:44:03;;;;;;;16.13;5.40;;;31.00;99.90;;;;;;5044243;28;20187;-75
2021/07/22 11:46:46;;;;;;;7.85;4.30;;;30.90;99.90;;;;;;5044333;28;20257;-73
2021/07/22 11:49:18;;;;;;;11.18;5.13;;;30.80;99.90;;;;;;5042581;28;20192;-76
2021/07/22 11:51:49;;;;;;;15.25;5.15;;;30.70;99.90;;;;;;5039399;28;20271;-74
2021/07/22 11:54:20;;;;;;;14.35;5.00;;;30.70;99.90;;;;;;5045626;28;20211;-75
2021/07/22 11:56:51;;;;;;;14.23;5.18;;;30.90;99.90;;;;;;5039636;28;20190;-74
2021/07/22 11:59:17;;;;;;;11.73;4.95;;;30.70;99.90;;;;;;5049221;28;20271;-75
2021/07/22 12:01:49;;;;;;;15.15;5.22;;;30.60;99.90;;;;;;5042316;28;20192;-74
2021/07/22 12:04:33;;;;;;;14.50;5.10;;;30.80;99.90;;;;;;5040046;28;20716;-74
2021/07/22 12:07:08;;;;;;;13.77;5.20;;;30.80;99.90;;;;;;5050909;28;20191;-76
2021/07/22 12:09:53;;;;;;;15.82;5.07;;;30.80;99.90;;;;;;5027939;28;20193;-73
2021/07/22 12:12:26;;;;;;;16.52;5.53;;;30.90;99.90;;;;;;5040594;28;20328;-75
2021/07/22 12:15:10;;;;;;;15.48;5.38;;;30.80;99.90;;;;;;5025918;28;20231;-76
2021/07/22 12:17:38;;;;;;;14.23;5.57;;;30.50;99.90;;;;;;5043188;28;20191;-75
2021/07/22 12:20:06;;;;;;;10.30;4.93;;;30.60;99.90;;;;;;5041591;28;20190;-76
2021/07/22 12:22:40;;;;;;;14.80;4.95;;;30.70;99.90;;;;;;5041378;28;20277;-75
2021/07/22 12:25:18;;;;;;;11.70;4.65;;;31.20;99.90;;;;;;5043393;28;20183;-76
2021/07/22 12:27:54;;;;;;;19.33;5.47;;;31.60;99.90;;;;;;5040818;28;20671;-74
2021/07/22 12:30:31;;;;;;;14.23;4.70;;;31.70;99.90;;;;;;5038205;28;20196;-78
2021/07/22 12:33:05;;;;;;;17.77;4.90;;;32.00;99.90;;;;;;5042587;28;20187;-74
2021/07/22 12:35:42;;;;;;;12.63;5.25;;;31.90;99.90;;;;;;5059177;28;20584;-75
2021/07/22 12:38:25;;;;;;;11.93;4.63;;;31.90;99.90;;;;;;5026244;28;20267;-75
2021/07/22 12:41:04;;;;;;;10.43;4.18;;;31.90;99.90;;;;;;5060892;28;20270;-77
2021/07/22 12:43:48;;;;;;;11.93;4.78;;;31.80;99.90;;;;;;5041095;28;20688;-76